Time;durP1;ratioP1;P1;durP2;ratioP2;P2;SDS_P1;SDS_P2;PMS_P1;PMS_P2;Temp;Humidity;BMP_temperature;BMP_pressure;BME280_temperature;BME280_humidity;BME280_pressure;Samples;Min_cycle;Max_cycle;Signal;HPM_P1;HPM_P2
2021/12/20 00:00:14;;;;;;;11.30;0.97;;;3.70;99.90;;;;;;5104569;28;20933;-53
2021/12/20 00:02:42;;;;;;;7.70;1.43;;;3.60;99.90;;;;;;5113665;28;20522;-55
2021/12/20 00:05:09;;;;;;;0.80;0.53;;;3.50;99.90;;;;;;5113901;28;20499;-53
2021/12/20 00:07:40;;;;;;;1.00;0.80;;;3.50;99.90;;;;;;5113822;28;20453;-56
2021/12/20 00:10:07;;;;;;;0.90;0.60;;;3.50;99.90;;;;;;5114253;28;20426;-56
2021/12/20 00:12:34;;;;;;;1.67;0.63;;;3.40;99.90;;;;;;5114214;28;20444;-55
2021/12/20 00:15:01;;;;;;;1.17;1.07;;;3.40;99.90;;;;;;5106686;28;20462;-55
2021/12/20 00:17:28;;;;;;;4.40;0.67;;;3.30;99.90;;;;;;5105520;28;20466;-56
2021/12/20 00:19:54;;;;;;;7.73;0.93;;;3.30;99.90;;;;;;5104567;28;20437;-57
2021/12/20 00:22:21;;;;;;;1.87;1.00;;;3.30;99.90;;;;;;5104089;28;20476;-57
2021/12/20 00:24:52;;;;;;;0.90;0.77;;;3.30;99.90;;;;;;5103752;28;20462;-55
2021/12/20 00:27:19;;;;;;;2.50;0.70;;;3.40;99.90;;;;;;5104995;28;20437;-55
2021/12/20 00:29:47;;;;;;;1.10;0.90;;;3.40;99.90;;;;;;5104498;28;20482;-55
2021/12/20 00:32:13;;;;;;;1.10;0.70;;;3.30;99.90;;;;;;5104623;28;20464;-54
2021/12/20 00:34:41;;;;;;;0.90;0.70;;;3.30;99.90;;;;;;5103883;28;20529;-56
2021/12/20 00:40:20;;;;;;;0.90;0.70;;;3.30;99.90;;;;;;5104893;28;20453;-56
2021/12/20 00:42:41;;;;;;;1.47;0.73;;;3.20;99.90;;;;;;5104216;28;20919;-53
2021/12/20 00:45:09;;;;;;;2.70;0.80;;;3.20;99.90;;;;;;5104909;28;20456;-55
2021/12/20 00:47:36;;;;;;;0.87;0.60;;;3.20;99.90;;;;;;5105177;28;20460;-55
2021/12/20 00:50:03;;;;;;;3.57;1.57;;;3.10;99.90;;;;;;5104591;28;20501;-55
2021/12/20 00:52:30;;;;;;;0.97;0.67;;;3.10;99.90;;;;;;5105290;28;20489;-56
2021/12/20 00:54:58;;;;;;;1.20;0.70;;;3.10;99.90;;;;;;5104381;28;20481;-56
2021/12/20 00:57:24;;;;;;;0.90;0.50;;;3.10;99.90;;;;;;5103538;28;20947;-56
2021/12/20 00:59:52;;;;;;;5.80;0.90;;;3.10;99.90;;;;;;5106264;28;20450;-54
2021/12/20 01:02:20;;;;;;;1.00;0.60;;;3.10;99.90;;;;;;5106726;28;20440;-56
2021/12/20 01:04:47;;;;;;;1.00;0.60;;;3.10;99.90;;;;;;5105443;28;20435;-56
2021/12/20 01:07:14;;;;;;;5.33;1.33;;;3.10;99.90;;;;;;5105588;28;20473;-53
2021/12/20 01:09:41;;;;;;;0.90;0.70;;;3.10;99.90;;;;;;5104757;28;20537;-56
2021/12/20 01:12:16;;;;;;;0.90;0.57;;;3.10;99.90;;;;;;5105562;28;20461;-55
2021/12/20 01:14:44;;;;;;;1.10;0.70;;;3.10;99.90;;;;;;5105466;28;20498;-54
2021/12/20 01:17:10;;;;;;;1.00;0.80;;;3.00;99.90;;;;;;5104642;28;20453;-56
2021/12/20 01:19:38;;;;;;;0.90;0.70;;;3.00;99.90;;;;;;5103618;28;20465;-54
2021/12/20 01:22:06;;;;;;;1.50;1.23;;;3.00;99.90;;;;;;5104631;28;20461;-56
2021/12/20 01:24:34;;;;;;;1.30;1.20;;;3.00;99.90;;;;;;5104000;28;20968;-53
2021/12/20 01:27:02;;;;;;;16.33;1.20;;;3.00;99.90;;;;;;5103657;28;20438;-56
2021/12/20 01:29:31;;;;;;;0.90;0.60;;;3.00;99.90;;;;;;5103242;28;20454;-55
2021/12/20 01:31:57;;;;;;;0.87;0.60;;;3.00;99.90;;;;;;5103521;28;20534;-56
2021/12/20 01:34:24;;;;;;;1.00;0.73;;;3.00;99.90;;;;;;5103297;28;20451;-56
2021/12/20 01:36:51;;;;;;;2.53;1.00;;;3.00;99.90;;;;;;5102919;28;20973;-54
2021/12/20 01:39:18;;;;;;;12.80;1.10;;;3.00;99.90;;;;;;5103820;28;20526;-55
2021/12/20 01:41:46;;;;;;;0.90;0.70;;;3.00;99.90;;;;;;5104720;28;20437;-55
2021/12/20 01:44:13;;;;;;;2.83;0.90;;;2.90;99.90;;;;;;5105778;28;20501;-56
2021/12/20 01:46:42;;;;;;;1.50;1.10;;;2.90;99.90;;;;;;5109508;28;20450;-55
2021/12/20 01:49:12;;;;;;;1.13;0.80;;;2.90;99.90;;;;;;5104545;28;20470;-56
2021/12/20 01:52:02;;;;;;;1.00;0.80;;;2.90;99.90;;;;;;5104412;28;20520;-52
2021/12/20 01:54:28;;;;;;;1.00;0.70;;;2.90;99.90;;;;;;5104049;28;20483;-54
2021/12/20 01:56:57;;;;;;;1.07;0.60;;;2.90;99.90;;;;;;5103648;28;20471;-54
2021/12/20 01:59:24;;;;;;;2.13;0.60;;;2.90;99.90;;;;;;5104315;28;20434;-55
2021/12/20 02:01:53;;;;;;;1.53;0.80;;;2.80;99.90;;;;;;5103473;28;20474;-56
2021/12/20 02:04:20;;;;;;;2.50;1.03;;;2.90;99.90;;;;;;5103667;28;20512;-54
2021/12/20 02:06:48;;;;;;;0.90;0.67;;;2.90;99.90;;;;;;5105160;28;20446;-54
2021/12/20 02:09:17;;;;;;;1.17;1.00;;;2.90;99.90;;;;;;5109079;28;20460;-56
2021/12/20 02:11:46;;;;;;;1.23;0.90;;;2.90;99.90;;;;;;5109550;28;20468;-55
2021/12/20 02:14:14;;;;;;;3.80;0.90;;;2.90;99.90;;;;;;5108448;28;20457;-54
2021/12/20 02:16:42;;;;;;;4.20;0.83;;;2.90;99.90;;;;;;5106697;28;20439;-54
2021/12/20 02:19:11;;;;;;;1.00;0.70;;;2.90;99.90;;;;;;5108190;28;20445;-55
2021/12/20 02:21:40;;;;;;;1.30;0.60;;;3.00;99.90;;;;;;5108041;28;20457;-55
2021/12/20 02:24:07;;;;;;;0.90;0.67;;;2.90;99.90;;;;;;5108589;28;20543;-55
2021/12/20 02:26:35;;;;;;;2.50;1.13;;;2.80;99.90;;;;;;5108538;28;20466;-55
2021/12/20 02:29:07;;;;;;;1.87;0.80;;;2.80;99.90;;;;;;5108883;28;20485;-55
2021/12/20 02:37:27;;;;;;;3.07;1.20;;;2.60;99.90;;;;;;5108605;28;20723;-55
2021/12/20 02:39:55;;;;;;;1.40;0.90;;;2.50;99.90;;;;;;5108688;28;20506;-52
2021/12/20 02:42:31;;;;;;;0.90;0.60;;;2.50;99.90;;;;;;5109358;28;20444;-54
2021/12/20 02:45:10;;;;;;;2.60;0.70;;;2.50;99.90;;;;;;5108710;28;20547;-56
2021/12/20 02:47:38;;;;;;;0.80;0.50;;;2.60;99.90;;;;;;5107871;28;20429;-56
2021/12/20 02:50:05;;;;;;;1.00;0.80;;;2.70;99.90;;;;;;5107462;28;20523;-53
2021/12/20 02:52:33;;;;;;;0.90;0.60;;;2.70;99.90;;;;;;5109724;28;20457;-55
2021/12/20 02:55:00;;;;;;;0.80;0.50;;;2.70;99.90;;;;;;5110725;28;20444;-55
2021/12/20 02:57:27;;;;;;;1.27;0.90;;;2.70;99.90;;;;;;5108740;28;20469;-53
2021/12/20 02:59:53;;;;;;;0.83;0.60;;;2.70;99.90;;;;;;5108165;28;20446;-56
2021/12/20 03:02:22;;;;;;;1.67;1.10;;;2.70;99.90;;;;;;5107626;28;20471;-53
2021/12/20 03:04:49;;;;;;;2.20;1.43;;;2.70;99.90;;;;;;5108408;28;20499;-54
2021/12/20 03:07:22;;;;;;;2.27;1.13;;;2.80;99.90;;;;;;5108193;28;20455;-55
2021/12/20 03:09:55;;;;;;;2.17;0.83;;;2.80;99.90;;;;;;5107634;28;20446;-57
2021/12/20 03:12:27;;;;;;;2.90;1.07;;;2.80;99.90;;;;;;5107441;28;20422;-56
2021/12/20 03:15:00;;;;;;;2.53;0.63;;;2.80;99.90;;;;;;5106435;28;20476;-56
2021/12/20 03:17:27;;;;;;;3.00;0.87;;;2.80;99.90;;;;;;5108051;28;20479;-56
2021/12/20 03:19:53;;;;;;;2.70;1.23;;;2.80;99.90;;;;;;5106305;28;20446;-56
2021/12/20 03:22:20;;;;;;;3.23;1.53;;;2.80;99.90;;;;;;5106983;28;20454;-56
2021/12/20 03:24:48;;;;;;;2.40;1.03;;;2.70;99.90;;;;;;5107605;28;20485;-54
2021/12/20 03:27:16;;;;;;;0.80;0.60;;;2.80;99.90;;;;;;5107029;28;20473;-53
2021/12/20 03:29:43;;;;;;;1.53;1.43;;;2.70;99.90;;;;;;5117286;28;20437;-55
2021/12/20 03:32:10;;;;;;;1.60;0.80;;;2.70;99.90;;;;;;5116784;28;20441;-53
2021/12/20 03:34:36;;;;;;;1.43;0.80;;;2.70;99.90;;;;;;5116795;28;20448;-56
2021/12/20 03:37:03;;;;;;;13.20;1.40;;;2.70;99.90;;;;;;5116046;28;20472;-57
2021/12/20 03:39:30;;;;;;;0.80;0.50;;;2.70;99.90;;;;;;5115936;28;20449;-55
2021/12/20 03:41:57;;;;;;;6.30;1.00;;;2.70;99.90;;;;;;5115911;28;20466;-56
2021/12/20 03:44:25;;;;;;;6.53;0.70;;;2.70;99.90;;;;;;5116335;28;20489;-54
2021/12/20 03:46:52;;;;;;;2.20;0.77;;;2.70;99.90;;;;;;5115840;28;20433;-56
2021/12/20 03:49:19;;;;;;;2.33;0.73;;;2.70;99.90;;;;;;5115507;28;20434;-53
2021/12/20 03:51:45;;;;;;;4.83;1.43;;;2.70;99.90;;;;;;5116391;28;20472;-57
2021/12/20 03:54:12;;;;;;;1.00;0.70;;;2.70;99.90;;;;;;5115802;28;20433;-54
2021/12/20 03:56:39;;;;;;;1.40;0.83;;;2.70;99.90;;;;;;5115502;28;20442;-50
2021/12/20 03:59:05;;;;;;;3.53;0.80;;;2.60;99.90;;;;;;5115837;28;20450;-56
2021/12/20 04:01:33;;;;;;;3.43;0.80;;;2.60;99.90;;;;;;5115506;28;20472;-51
2021/12/20 04:04:02;;;;;;;3.43;0.67;;;2.60;99.90;;;;;;5116005;28;20482;-54
2021/12/20 04:06:31;;;;;;;2.60;1.00;;;2.60;99.90;;;;;;5116191;28;20441;-55
2021/12/20 04:08:57;;;;;;;1.40;0.60;;;2.70;99.90;;;;;;5115717;28;20438;-51
2021/12/20 04:11:24;;;;;;;1.83;1.17;;;2.70;99.90;;;;;;5115765;28;20491;-50
2021/12/20 04:13:51;;;;;;;2.63;0.93;;;2.70;99.90;;;;;;5115584;28;20429;-53
2021/12/20 04:16:17;;;;;;;1.40;0.70;;;2.70;99.90;;;;;;5115728;28;20473;-50
2021/12/20 04:18:45;;;;;;;3.67;0.63;;;2.60;99.90;;;;;;5115622;28;21052;-55
2021/12/20 04:21:13;;;;;;;0.80;0.60;;;2.50;99.90;;;;;;5115364;28;20468;-55
2021/12/20 04:23:39;;;;;;;2.70;0.97;;;2.60;99.90;;;;;;5115910;28;20771;-55
2021/12/20 04:26:06;;;;;;;4.43;1.00;;;2.50;99.90;;;;;;5115210;28;20472;-55
2021/12/20 04:28:34;;;;;;;6.83;1.00;;;2.50;99.90;;;;;;5114547;28;20488;-55
2021/12/20 04:31:00;;;;;;;1.40;0.73;;;2.50;99.90;;;;;;5115978;28;20471;-56
2021/12/20 04:33:29;;;;;;;1.17;0.93;;;2.50;99.90;;;;;;5115423;28;20844;-61
2021/12/20 04:35:58;;;;;;;4.30;1.07;;;2.50;99.90;;;;;;5116254;28;20430;-56
2021/12/20 04:38:26;;;;;;;4.50;1.57;;;2.50;99.90;;;;;;5113324;28;20816;-53
2021/12/20 04:40:53;;;;;;;4.40;0.80;;;2.50;99.90;;;;;;5107054;28;20480;-56
2021/12/20 04:43:19;;;;;;;2.40;0.80;;;2.60;99.90;;;;;;5107800;28;20935;-54
2021/12/20 04:45:46;;;;;;;2.40;1.13;;;2.50;99.90;;;;;;5106397;28;21003;-54
2021/12/20 04:48:13;;;;;;;1.20;0.80;;;2.50;99.90;;;;;;5106223;28;20434;-56
2021/12/20 04:50:40;;;;;;;0.80;0.60;;;2.50;99.90;;;;;;5106278;28;20458;-54
2021/12/20 04:53:08;;;;;;;6.53;0.80;;;2.50;99.90;;;;;;5105681;28;20499;-54
2021/12/20 04:55:35;;;;;;;2.30;1.03;;;2.60;99.90;;;;;;5105997;28;20438;-53
2021/12/20 04:58:05;;;;;;;10.87;1.43;;;2.60;99.90;;;;;;5106538;28;20945;-55
2021/12/20 05:00:33;;;;;;;1.00;0.60;;;2.50;99.90;;;;;;5105565;28;20430;-54
2021/12/20 05:03:00;;;;;;;2.07;0.80;;;2.50;99.90;;;;;;5105092;28;20473;-54
2021/12/20 05:05:28;;;;;;;2.90;0.80;;;2.50;99.90;;;;;;5105903;28;20485;-56
2021/12/20 05:07:55;;;;;;;1.40;0.70;;;2.50;99.90;;;;;;5106141;28;20491;-56
2021/12/20 05:10:30;;;;;;;21.47;0.93;;;2.50;99.90;;;;;;5105472;28;20530;-55
2021/12/20 05:12:59;;;;;;;3.23;0.90;;;2.50;99.90;;;;;;5106482;28;20433;-54
2021/12/20 05:15:27;;;;;;;1.40;0.80;;;2.40;99.90;;;;;;5106716;28;20449;-55
2021/12/20 05:17:55;;;;;;;3.37;2.20;;;2.40;99.90;;;;;;5108773;28;20446;-56
2021/12/20 05:20:24;;;;;;;0.90;0.80;;;2.40;99.90;;;;;;5107678;28;20446;-56
2021/12/20 05:22:51;;;;;;;4.20;1.33;;;2.30;99.90;;;;;;5106494;28;20786;-56
2021/12/20 05:25:18;;;;;;;1.50;1.07;;;2.40;99.90;;;;;;5106402;28;20511;-54
2021/12/20 05:27:46;;;;;;;2.83;1.20;;;2.40;99.90;;;;;;5105864;28;20438;-56
2021/12/20 05:30:14;;;;;;;1.50;0.70;;;2.40;99.90;;;;;;5105662;28;20450;-56
2021/12/20 05:32:40;;;;;;;3.33;0.93;;;2.40;99.90;;;;;;5105236;28;20482;-56
2021/12/20 05:35:10;;;;;;;4.97;0.97;;;2.40;99.90;;;;;;5105616;28;20496;-56
2021/12/20 05:37:37;;;;;;;0.90;0.70;;;2.50;99.90;;;;;;5106342;28;20460;-57
2021/12/20 05:40:05;;;;;;;1.87;1.17;;;2.50;99.90;;;;;;5105985;28;20797;-56
2021/12/20 05:42:32;;;;;;;4.73;1.23;;;2.40;99.90;;;;;;5106801;28;20441;-56
2021/12/20 05:45:00;;;;;;;2.03;0.97;;;2.40;99.90;;;;;;5106476;28;20476;-55
2021/12/20 05:47:27;;;;;;;1.40;0.80;;;2.40;99.90;;;;;;5106580;28;20476;-52
2021/12/20 05:49:54;;;;;;;1.93;0.93;;;2.40;99.90;;;;;;5105581;28;20461;-56
2021/12/20 05:52:20;;;;;;;1.20;0.70;;;2.50;99.90;;;;;;5106027;28;20452;-57
2021/12/20 05:54:47;;;;;;;1.00;0.70;;;2.50;99.90;;;;;;5105280;28;20475;-56
2021/12/20 05:57:14;;;;;;;1.20;0.70;;;2.60;99.90;;;;;;5105128;28;20461;-55
2021/12/20 05:59:41;;;;;;;1.27;0.83;;;2.60;99.90;;;;;;5104881;28;20522;-56
2021/12/20 06:02:09;;;;;;;0.83;0.60;;;2.60;99.90;;;;;;5106491;28;20442;-55
2021/12/20 06:04:36;;;;;;;4.73;1.07;;;2.60;99.90;;;;;;5105686;28;20502;-56
2021/12/20 06:07:04;;;;;;;2.93;0.83;;;2.60;99.90;;;;;;5105002;28;20458;-55
2021/12/20 06:09:31;;;;;;;3.23;0.70;;;2.60;99.90;;;;;;5103932;28;20452;-55
2021/12/20 06:11:59;;;;;;;1.47;1.03;;;2.60;99.90;;;;;;5105066;28;20535;-54
2021/12/20 06:14:27;;;;;;;1.60;1.00;;;2.70;99.90;;;;;;5106466;28;20456;-56
2021/12/20 06:16:55;;;;;;;3.37;2.03;;;2.70;99.90;;;;;;5104842;28;20897;-54
2021/12/20 06:19:23;;;;;;;5.63;1.27;;;2.70;99.90;;;;;;5103823;28;21014;-50
2021/12/20 06:21:52;;;;;;;1.97;1.10;;;2.70;99.90;;;;;;5106835;28;20481;-52
2021/12/20 06:24:19;;;;;;;1.33;1.23;;;2.80;99.90;;;;;;5105050;28;20512;-56
2021/12/20 06:26:46;;;;;;;3.63;1.13;;;2.80;99.90;;;;;;5106950;28;20445;-55
2021/12/20 06:29:13;;;;;;;3.30;0.77;;;2.80;99.90;;;;;;5106194;28;20449;-56
2021/12/20 06:31:40;;;;;;;2.50;0.77;;;2.80;99.90;;;;;;5105388;28;20498;-56
2021/12/20 06:34:07;;;;;;;1.53;1.10;;;2.80;99.90;;;;;;5104368;28;20450;-53
2021/12/20 06:36:35;;;;;;;0.80;0.60;;;2.80;99.90;;;;;;5105012;28;20472;-55
2021/12/20 06:39:01;;;;;;;0.80;0.60;;;2.70;99.90;;;;;;5113926;28;20515;-56
2021/12/20 06:41:28;;;;;;;3.43;1.07;;;2.70;99.90;;;;;;5105698;28;20441;-55
2021/12/20 06:43:56;;;;;;;1.20;0.80;;;2.70;99.90;;;;;;5104526;28;20430;-55
2021/12/20 06:46:27;;;;;;;2.57;1.27;;;2.80;99.90;;;;;;5103635;28;20572;-55
2021/12/20 06:48:54;;;;;;;3.47;0.83;;;2.80;99.90;;;;;;5109413;28;20469;-57
2021/12/20 06:51:20;;;;;;;1.93;1.43;;;2.80;99.90;;;;;;5109386;28;20438;-57
2021/12/20 06:53:48;;;;;;;10.50;1.03;;;2.70;99.90;;;;;;5103796;28;20538;-57
2021/12/20 06:56:15;;;;;;;3.83;1.30;;;2.80;99.90;;;;;;5108052;28;20475;-55
2021/12/20 06:58:42;;;;;;;1.03;0.80;;;2.90;99.90;;;;;;5108302;28;20445;-58
2021/12/20 07:01:09;;;;;;;1.20;0.90;;;2.90;99.90;;;;;;5107878;28;20433;-56
2021/12/20 07:03:38;;;;;;;3.13;2.03;;;2.80;99.90;;;;;;5108065;28;20445;-56
2021/12/20 07:06:05;;;;;;;1.70;1.07;;;2.90;99.90;;;;;;5108325;28;20518;-55
2021/12/20 07:08:32;;;;;;;6.50;2.23;;;2.90;99.90;;;;;;5108632;28;20445;-56
2021/12/20 07:11:00;;;;;;;6.77;0.90;;;3.00;99.90;;;;;;5108777;28;20473;-55
2021/12/20 07:13:26;;;;;;;3.93;1.00;;;3.10;99.90;;;;;;5107278;28;20440;-57
2021/12/20 07:15:53;;;;;;;1.00;0.70;;;3.00;99.90;;;;;;5107193;28;20465;-54
2021/12/20 07:18:20;;;;;;;1.77;0.83;;;3.00;99.90;;;;;;5106693;28;20442;-56
2021/12/20 07:20:46;;;;;;;1.10;0.80;;;3.00;99.90;;;;;;5106298;28;20482;-56
2021/12/20 07:23:13;;;;;;;1.50;0.83;;;3.00;99.90;;;;;;5111601;28;20462;-55
2021/12/20 07:25:40;;;;;;;7.90;0.80;;;2.90;99.90;;;;;;5115708;28;20478;-54
2021/12/20 07:28:08;;;;;;;5.33;1.00;;;2.90;99.90;;;;;;5115446;28;20450;-53
2021/12/20 07:30:36;;;;;;;1.00;0.90;;;2.90;99.90;;;;;;5117149;28;20529;-53
2021/12/20 07:33:02;;;;;;;1.63;0.87;;;3.00;99.90;;;;;;5118946;28;20450;-50
2021/12/20 07:35:31;;;;;;;1.90;1.30;;;2.90;99.90;;;;;;5119455;28;20491;-55
2021/12/20 07:38:00;;;;;;;1.67;0.97;;;2.90;99.90;;;;;;5118935;28;20470;-52
2021/12/20 07:40:27;;;;;;;3.93;0.97;;;2.90;99.90;;;;;;5118983;28;20445;-55
2021/12/20 07:42:54;;;;;;;1.20;0.80;;;2.90;99.90;;;;;;5118606;28;20466;-53
2021/12/20 07:45:22;;;;;;;3.63;0.80;;;2.80;99.90;;;;;;5118413;28;20473;-55
2021/12/20 07:47:50;;;;;;;2.33;0.97;;;2.70;99.90;;;;;;5118530;28;20453;-57
2021/12/20 07:50:18;;;;;;;5.93;1.10;;;2.70;99.90;;;;;;5118393;28;20445;-52
2021/12/20 07:52:45;;;;;;;1.10;0.80;;;2.70;99.90;;;;;;5118305;28;20430;-55
2021/12/20 07:55:11;;;;;;;1.13;0.60;;;2.70;99.90;;;;;;5117728;28;20457;-55
2021/12/20 07:57:39;;;;;;;1.20;1.03;;;2.60;99.90;;;;;;5118280;28;20434;-56
2021/12/20 08:00:09;;;;;;;4.20;1.20;;;2.60;99.90;;;;;;5117630;28;20558;-51
2021/12/20 08:02:40;;;;;;;5.47;1.60;;;2.60;99.90;;;;;;5117699;28;20498;-56
2021/12/20 08:05:10;;;;;;;2.67;1.17;;;2.70;99.90;;;;;;5118307;28;20490;-52
2021/12/20 08:07:37;;;;;;;8.50;1.10;;;2.60;99.90;;;;;;5117096;28;20433;-53
2021/12/20 08:10:05;;;;;;;0.90;0.70;;;2.60;99.90;;;;;;5117910;28;20446;-56
2021/12/20 08:12:32;;;;;;;1.77;0.97;;;2.60;99.90;;;;;;5117460;28;20457;-52
2021/12/20 08:14:58;;;;;;;1.70;1.00;;;2.60;99.90;;;;;;5117756;28;20978;-52
2021/12/20 08:17:25;;;;;;;2.40;1.20;;;2.70;99.90;;;;;;5117828;28;20760;-53
2021/12/20 08:19:53;;;;;;;7.63;1.77;;;2.70;99.90;;;;;;5117562;28;20551;-56
2021/12/20 08:22:24;;;;;;;1.33;0.97;;;2.70;99.90;;;;;;5117583;28;20457;-56
2021/12/20 08:24:50;;;;;;;1.17;1.00;;;2.70;99.90;;;;;;5117785;28;20429;-53
2021/12/20 08:27:17;;;;;;;1.57;0.83;;;2.70;99.90;;;;;;5117271;28;20468;-55
2021/12/20 08:29:44;;;;;;;4.60;0.90;;;2.70;99.90;;;;;;5117093;28;20415;-54
2021/12/20 08:32:11;;;;;;;3.70;1.93;;;2.80;99.90;;;;;;5117594;28;20441;-56
2021/12/20 08:34:37;;;;;;;2.90;1.07;;;2.80;99.90;;;;;;5117558;28;20450;-56
2021/12/20 08:37:08;;;;;;;5.13;1.13;;;2.90;99.90;;;;;;5117450;28;20430;-51
2021/12/20 08:39:35;;;;;;;1.83;0.90;;;2.80;99.90;;;;;;5117586;28;20476;-53
2021/12/20 08:42:03;;;;;;;4.57;1.40;;;2.90;99.90;;;;;;5117501;28;20448;-56
2021/12/20 08:44:30;;;;;;;6.00;1.40;;;3.00;99.90;;;;;;5117226;28;20480;-56
2021/12/20 08:46:58;;;;;;;3.47;1.33;;;2.90;99.90;;;;;;5117411;28;20509;-55
2021/12/20 08:49:25;;;;;;;5.77;1.33;;;3.00;99.90;;;;;;5117384;28;20449;-50
2021/12/20 08:51:52;;;;;;;11.60;1.63;;;3.00;99.90;;;;;;5117766;28;20472;-55
2021/12/20 08:54:23;;;;;;;1.90;1.40;;;3.00;99.90;;;;;;5117523;28;20493;-54
2021/12/20 08:56:50;;;;;;;5.90;1.60;;;3.00;99.90;;;;;;5117093;28;20468;-54
2021/12/20 08:59:17;;;;;;;2.77;1.50;;;3.00;99.90;;;;;;5117527;28;20449;-54
2021/12/20 09:01:44;;;;;;;3.20;2.00;;;3.10;99.90;;;;;;5117556;28;20477;-58
2021/12/20 09:04:11;;;;;;;6.00;1.50;;;3.00;99.90;;;;;;5117611;28;20528;-57
2021/12/20 09:06:40;;;;;;;3.23;1.63;;;3.10;99.90;;;;;;5117691;28;20491;-54
2021/12/20 09:09:08;;;;;;;15.23;2.50;;;3.10;99.90;;;;;;5117223;28;20462;-54
2021/12/20 09:11:36;;;;;;;3.17;1.90;;;3.10;99.90;;;;;;5117598;28;20441;-56
2021/12/20 09:14:03;;;;;;;7.97;2.27;;;3.10;99.90;;;;;;5117279;28;20429;-54
2021/12/20 09:16:30;;;;;;;2.07;1.30;;;3.00;99.90;;;;;;5117318;28;20462;-51
2021/12/20 09:18:57;;;;;;;4.93;1.33;;;3.00;99.90;;;;;;5116300;28;20457;-54
2021/12/20 09:21:25;;;;;;;1.00;0.70;;;3.10;99.90;;;;;;5116615;28;20507;-57
2021/12/20 09:23:52;;;;;;;8.83;1.50;;;3.10;99.90;;;;;;5116539;28;20476;-56
2021/12/20 09:26:20;;;;;;;3.47;1.90;;;3.10;99.90;;;;;;5116721;28;20528;-54
2021/12/20 09:28:48;;;;;;;1.77;1.17;;;3.20;99.90;;;;;;5116669;28;20457;-53
2021/12/20 09:31:15;;;;;;;1.40;0.87;;;3.20;99.90;;;;;;5116958;28;20419;-56
2021/12/20 09:33:42;;;;;;;4.93;1.70;;;3.30;99.90;;;;;;5115996;28;20454;-57
2021/12/20 09:36:08;;;;;;;2.67;1.23;;;3.40;99.90;;;;;;5116507;28;20469;-56
2021/12/20 09:38:35;;;;;;;3.10;0.97;;;3.50;99.90;;;;;;5116794;28;20481;-56
2021/12/20 09:43:47;;;;;;;6.30;1.30;;;3.50;99.90;;;;;;5115132;28;20426;-56
2021/12/20 09:46:16;;;;;;;3.00;1.53;;;3.50;99.90;;;;;;5115967;28;20552;-55
2021/12/20 09:48:47;;;;;;;1.57;1.13;;;3.40;99.90;;;;;;5116120;28;20477;-55
2021/12/20 09:51:15;;;;;;;7.30;1.70;;;3.40;99.90;;;;;;5116209;28;20457;-53
2021/12/20 09:53:41;;;;;;;1.60;1.00;;;3.40;99.90;;;;;;5116276;28;20437;-53
2021/12/20 09:56:10;;;;;;;1.27;0.93;;;3.50;99.90;;;;;;5116097;28;20438;-54
2021/12/20 09:58:42;;;;;;;4.10;0.90;;;3.50;99.90;;;;;;5116105;28;20468;-54
2021/12/20 10:01:12;;;;;;;2.70;2.50;;;3.70;99.90;;;;;;5115983;28;20436;-55
2021/12/20 10:03:43;;;;;;;6.70;1.60;;;4.00;99.90;;;;;;5116208;28;20523;-56
2021/12/20 10:06:10;;;;;;;13.07;1.20;;;4.10;99.90;;;;;;5115799;28;20522;-51
2021/12/20 10:08:47;;;;;;;3.27;1.00;;;4.30;99.90;;;;;;5115620;28;20473;-51
2021/12/20 10:11:19;;;;;;;6.80;0.90;;;4.30;99.90;;;;;;5114945;28;20441;-56
2021/12/20 10:13:51;;;;;;;5.03;1.40;;;4.90;99.90;;;;;;5115339;28;20462;-53
2021/12/20 10:16:20;;;;;;;4.83;1.20;;;5.50;99.90;;;;;;5113117;28;20438;-55
2021/12/20 10:18:49;;;;;;;2.93;1.40;;;6.60;99.90;;;;;;5112571;28;20454;-52
2021/12/20 10:21:17;;;;;;;3.40;1.03;;;7.00;99.90;;;;;;5111827;28;20434;-56
2021/12/20 10:23:45;;;;;;;1.33;1.23;;;7.20;99.90;;;;;;5112362;28;20464;-55
2021/12/20 10:26:20;;;;;;;2.13;1.10;;;7.00;99.90;;;;;;5112870;28;20478;-55
2021/12/20 10:28:51;;;;;;;2.73;1.20;;;6.60;99.90;;;;;;5113511;28;20441;-56
2021/12/20 10:31:21;;;;;;;1.00;0.73;;;6.50;99.90;;;;;;5117853;28;20462;-60
2021/12/20 10:33:53;;;;;;;1.60;0.87;;;6.10;99.90;;;;;;5117901;28;20469;-56
2021/12/20 10:36:20;;;;;;;1.60;1.00;;;5.90;99.90;;;;;;5118653;28;20488;-56
2021/12/20 10:38:56;;;;;;;2.13;1.17;;;5.80;99.90;;;;;;5118137;28;20433;-57
2021/12/20 10:41:33;;;;;;;1.63;0.93;;;5.50;99.90;;;;;;5118354;28;20522;-57
2021/12/20 10:44:02;;;;;;;1.40;1.00;;;5.20;99.90;;;;;;5118606;28;20441;-57
2021/12/20 10:46:32;;;;;;;1.30;0.83;;;4.90;99.90;;;;;;5118100;28;20488;-54
2021/12/20 10:49:06;;;;;;;3.47;0.97;;;4.90;99.90;;;;;;5118118;28;20456;-57
2021/12/20 10:51:35;;;;;;;3.80;1.03;;;4.80;99.90;;;;;;5118419;28;20426;-54
2021/12/20 10:54:09;;;;;;;1.30;0.97;;;4.80;99.90;;;;;;5117836;28;20509;-48
2021/12/20 10:56:39;;;;;;;1.07;0.80;;;4.80;99.90;;;;;;5119205;28;20427;-56
2021/12/20 10:59:10;;;;;;;1.23;1.00;;;4.80;99.90;;;;;;5118088;28;20445;-54
2021/12/20 11:02:06;;;;;;;7.50;1.03;;;4.80;99.90;;;;;;5118437;28;20463;-53
2021/12/20 11:04:46;;;;;;;1.57;0.87;;;4.70;99.90;;;;;;5117978;28;20525;-54
2021/12/20 11:10:06;;;;;;;1.20;1.07;;;4.60;99.90;;;;;;5118517;28;20517;-56
2021/12/20 11:12:33;;;;;;;4.90;1.20;;;4.60;99.90;;;;;;5118189;28;20446;-54
2021/12/20 11:15:03;;;;;;;9.63;1.27;;;4.70;99.90;;;;;;5118503;28;20469;-56
2021/12/20 11:17:40;;;;;;;3.70;1.13;;;4.50;99.90;;;;;;5118520;28;20434;-54
2021/12/20 11:20:09;;;;;;;3.37;1.33;;;4.50;99.90;;;;;;5117915;28;20525;-56
2021/12/20 11:22:39;;;;;;;1.87;1.07;;;4.60;99.90;;;;;;5117711;28;20467;-56
2021/12/20 11:25:08;;;;;;;1.70;1.13;;;4.60;99.90;;;;;;5118146;28;20442;-56
2021/12/20 11:27:40;;;;;;;2.00;1.33;;;4.60;99.90;;;;;;5117792;28;20477;-53
2021/12/20 11:30:12;;;;;;;3.77;1.23;;;4.70;99.90;;;;;;5118083;28;20458;-56
2021/12/20 11:32:41;;;;;;;1.83;1.20;;;4.80;99.90;;;;;;5117561;28;20499;-55
2021/12/20 11:35:09;;;;;;;8.33;1.77;;;4.90;99.90;;;;;;5117681;28;20442;-56
2021/12/20 11:37:37;;;;;;;2.40;0.93;;;4.90;99.90;;;;;;5117472;28;20442;-54
2021/12/20 11:40:07;;;;;;;6.40;1.37;;;4.90;99.90;;;;;;5117596;28;20480;-54
2021/12/20 11:42:34;;;;;;;1.40;1.00;;;5.00;99.90;;;;;;5117079;28;20474;-51
2021/12/20 11:45:05;;;;;;;1.70;1.20;;;5.00;99.90;;;;;;5117536;28;20459;-55
2021/12/20 11:47:37;;;;;;;3.23;1.47;;;5.00;99.90;;;;;;5116871;28;20462;-54
2021/12/20 11:50:06;;;;;;;2.73;1.30;;;5.00;99.90;;;;;;5116888;28;20437;-52
2021/12/20 11:52:36;;;;;;;2.80;2.60;;;5.10;99.90;;;;;;5116479;28;20445;-53
2021/12/20 11:55:17;;;;;;;1.10;0.80;;;5.20;99.90;;;;;;5116900;28;20460;-56
2021/12/20 11:57:45;;;;;;;7.17;1.83;;;5.10;99.90;;;;;;5116958;28;20445;-54
2021/12/20 12:00:30;;;;;;;2.77;1.43;;;5.10;99.90;;;;;;5117155;28;20462;-56
2021/12/20 12:03:06;;;;;;;1.57;1.20;;;5.10;99.90;;;;;;5116605;28;20437;-52
2021/12/20 12:05:44;;;;;;;2.07;1.53;;;5.10;99.90;;;;;;5115971;28;20460;-57
2021/12/20 12:08:34;;;;;;;3.23;1.37;;;5.10;99.90;;;;;;5116809;28;20426;-53
2021/12/20 12:11:30;;;;;;;2.80;1.50;;;5.10;99.90;;;;;;5116054;28;20505;-55
2021/12/20 12:14:22;;;;;;;2.70;1.73;;;5.10;99.90;;;;;;5116132;28;20422;-55
2021/12/20 12:17:01;;;;;;;7.73;2.17;;;5.10;99.90;;;;;;5116219;28;20466;-56
2021/12/20 12:19:45;;;;;;;1.63;1.13;;;5.20;99.90;;;;;;5116906;28;20484;-56
2021/12/20 12:22:32;;;;;;;1.97;1.60;;;5.30;99.90;;;;;;5116169;28;20488;-56
2021/12/20 12:25:00;;;;;;;1.30;0.97;;;5.30;99.90;;;;;;5116497;28;20438;-54
2021/12/20 12:27:28;;;;;;;6.07;1.40;;;5.20;99.90;;;;;;5116856;28;20481;-52
2021/12/20 12:30:30;;;;;;;1.40;0.90;;;5.10;99.90;;;;;;5117397;28;20480;-52
2021/12/20 12:33:32;;;;;;;2.20;1.20;;;4.90;99.90;;;;;;5116989;28;20524;-56
2021/12/20 12:36:04;;;;;;;2.63;1.13;;;4.90;99.90;;;;;;5117687;28;20503;-55
2021/12/20 12:38:34;;;;;;;1.47;1.10;;;4.90;99.90;;;;;;5117123;28;20462;-51
2021/12/20 12:41:22;;;;;;;2.57;0.90;;;4.90;99.90;;;;;;5117212;28;20653;-55
2021/12/20 12:43:59;;;;;;;3.70;1.77;;;5.00;99.90;;;;;;5116550;28;20426;-53
2021/12/20 12:47:03;;;;;;;3.47;1.47;;;5.00;99.90;;;;;;5116009;28;20461;-54
2021/12/20 12:49:56;;;;;;;1.63;1.10;;;5.10;99.90;;;;;;5101888;28;20466;-56
2021/12/20 12:52:40;;;;;;;6.50;2.70;;;5.00;99.90;;;;;;5099967;28;20441;-54
2021/12/20 12:55:29;;;;;;;2.07;1.57;;;5.00;99.90;;;;;;5099539;28;20505;-56
2021/12/20 12:57:58;;;;;;;2.17;1.07;;;5.00;99.90;;;;;;5098413;28;20450;-54
2021/12/20 13:00:34;;;;;;;9.23;2.77;;;5.00;99.90;;;;;;5097803;28;20540;-54
2021/12/20 13:03:14;;;;;;;5.37;1.67;;;5.00;99.90;;;;;;5098452;28;20429;-57
2021/12/20 13:05:41;;;;;;;4.20;1.50;;;5.00;99.90;;;;;;5099407;28;20495;-54
2021/12/20 13:08:09;;;;;;;2.60;1.53;;;5.00;99.90;;;;;;5100504;28;20572;-51
2021/12/20 13:10:40;;;;;;;2.07;0.90;;;5.00;99.90;;;;;;5101121;28;20450;-54
2021/12/20 13:13:11;;;;;;;3.00;1.40;;;5.00;99.90;;;;;;5100864;28;20462;-53
2021/12/20 13:15:42;;;;;;;1.13;1.03;;;4.90;99.90;;;;;;5101042;28;20537;-55
2021/12/20 13:18:13;;;;;;;2.73;1.60;;;4.90;99.90;;;;;;5100705;28;20566;-54
2021/12/20 13:20:48;;;;;;;2.90;1.33;;;4.90;99.90;;;;;;5101584;28;20488;-53
2021/12/20 13:23:16;;;;;;;2.03;1.40;;;4.90;99.90;;;;;;5100322;28;20833;-53